sensor_id;sensor_type;location;lat;lon;timestamp;pressure;altitude;pressure_sealevel;temperature;humidity
12475;BME280;6302;42.624;23.334;2022-07-23T00:00:08;93607.09;;;22.21;60.63
12475;BME280;6302;42.624;23.334;2022-07-23T00:02:35;93598.66;;;22.05;60.70
12475;BME280;6302;42.624;23.334;2022-07-23T00:05:03;93607.44;;;22.14;59.75
12475;BME280;6302;42.624;23.334;2022-07-23T00:07:30;93615.22;;;22.12;59.88
12475;BME280;6302;42.624;23.334;2022-07-23T00:09:58;93611.06;;;22.11;60.39
12475;BME280;6302;42.624;23.334;2022-07-23T00:12:25;93616.44;;;22.11;59.82
12475;BME280;6302;42.624;23.334;2022-07-23T00:14:52;93611.53;;;22.10;59.63
12475;BME280;6302;42.624;23.334;2022-07-23T00:17:19;93618.56;;;22.07;59.16
12475;BME280;6302;42.624;23.334;2022-07-23T00:19:46;93614.22;;;22.10;58.34
12475;BME280;6302;42.624;23.334;2022-07-23T00:22:13;93604.47;;;22.03;56.50
12475;BME280;6302;42.624;23.334;2022-07-23T00:24:40;93619.72;;;22.15;55.52
12475;BME280;6302;42.624;23.334;2022-07-23T00:27:08;93625.53;;;22.23;54.67
12475;BME280;6302;42.624;23.334;2022-07-23T00:29:35;93623.53;;;22.32;55.28
12475;BME280;6302;42.624;23.334;2022-07-23T00:32:02;93631.63;;;22.32;55.62
12475;BME280;6302;42.624;23.334;2022-07-23T00:34:29;93631.06;;;22.28;55.99
12475;BME280;6302;42.624;23.334;2022-07-23T00:36:56;93637.03;;;22.32;56.66
12475;BME280;6302;42.624;23.334;2022-07-23T00:39:23;93636.75;;;22.30;57.26
12475;BME280;6302;42.624;23.334;2022-07-23T00:41:50;93630.78;;;22.26;57.71
12475;BME280;6302;42.624;23.334;2022-07-23T00:44:21;93630.94;;;22.23;57.92
12475;BME280;6302;42.624;23.334;2022-07-23T00:46:50;93624.22;;;22.18;58.65
12475;BME280;6302;42.624;23.334;2022-07-23T00:49:19;93621.22;;;22.16;60.73
12475;BME280;6302;42.624;23.334;2022-07-23T00:51:47;93619.47;;;22.04;61.75
12475;BME280;6302;42.624;23.334;2022-07-23T00:54:15;93618.16;;;21.99;62.36
12475;BME280;6302;42.624;23.334;2022-07-23T00:56:42;93619.81;;;21.97;62.28
12475;BME280;6302;42.624;23.334;2022-07-23T00:59:10;93609.63;;;21.83;62.10
12475;BME280;6302;42.624;23.334;2022-07-23T01:01:39;93616.53;;;21.84;61.99
12475;BME280;6302;42.624;23.334;2022-07-23T01:04:06;93623.72;;;21.78;62.19
12475;BME280;6302;42.624;23.334;2022-07-23T01:06:35;93615.81;;;21.74;61.55
12475;BME280;6302;42.624;23.334;2022-07-23T01:09:04;93619.56;;;21.68;61.09
12475;BME280;6302;42.624;23.334;2022-07-23T01:11:32;93604.63;;;21.58;60.21
12475;BME280;6302;42.624;23.334;2022-07-23T01:13:59;93608.38;;;21.60;60.01
12475;BME280;6302;42.624;23.334;2022-07-23T01:16:26;93615.44;;;21.58;59.79
12475;BME280;6302;42.624;23.334;2022-07-23T01:18:54;93608.53;;;21.57;60.04
12475;BME280;6302;42.624;23.334;2022-07-23T01:21:21;93607.94;;;21.53;60.26
12475;BME280;6302;42.624;23.334;2022-07-23T01:23:49;93604.34;;;21.47;60.22
12475;BME280;6302;42.624;23.334;2022-07-23T01:26:16;93598.97;;;21.47;59.51
12475;BME280;6302;42.624;23.334;2022-07-23T01:28:43;93602.84;;;21.46;59.91
12475;BME280;6302;42.624;23.334;2022-07-23T01:31:10;93592.09;;;21.36;59.83
12475;BME280;6302;42.624;23.334;2022-07-23T01:33:37;93603.78;;;21.43;60.11
12475;BME280;6302;42.624;23.334;2022-07-23T01:36:05;93604.66;;;21.39;60.94
12475;BME280;6302;42.624;23.334;2022-07-23T01:38:32;93607.97;;;21.34;62.55
12475;BME280;6302;42.624;23.334;2022-07-23T01:41:00;93604.84;;;21.27;62.20
12475;BME280;6302;42.624;23.334;2022-07-23T01:43:27;93607.69;;;21.23;62.66
12475;BME280;6302;42.624;23.334;2022-07-23T01:45:54;93612.50;;;21.19;63.42
12475;BME280;6302;42.624;23.334;2022-07-23T01:48:21;93600.38;;;21.15;63.43
12475;BME280;6302;42.624;23.334;2022-07-23T01:50:47;93598.56;;;21.12;64.33
12475;BME280;6302;42.624;23.334;2022-07-23T01:53:15;93600.03;;;21.04;64.47
12475;BME280;6302;42.624;23.334;2022-07-23T01:55:42;93608.47;;;21.06;64.31
12475;BME280;6302;42.624;23.334;2022-07-23T01:58:10;93601.84;;;20.98;63.25
12475;BME280;6302;42.624;23.334;2022-07-23T02:00:37;93608.44;;;20.97;63.21
12475;BME280;6302;42.624;23.334;2022-07-23T02:03:04;93612.00;;;20.94;63.32
12475;BME280;6302;42.624;23.334;2022-07-23T02:05:31;93613.66;;;20.91;63.12
12475;BME280;6302;42.624;23.334;2022-07-23T02:07:58;93617.56;;;20.90;62.70
12475;BME280;6302;42.624;23.334;2022-07-23T02:10:25;93614.59;;;20.88;62.73
12475;BME280;6302;42.624;23.334;2022-07-23T02:12:52;93613.06;;;20.87;62.68
12475;BME280;6302;42.624;23.334;2022-07-23T02:15:20;93616.66;;;20.84;63.56
12475;BME280;6302;42.624;23.334;2022-07-23T02:17:47;93620.28;;;20.81;64.02
12475;BME280;6302;42.624;23.334;2022-07-23T02:20:14;93619.34;;;20.75;64.57
12475;BME280;6302;42.624;23.334;2022-07-23T02:22:41;93615.47;;;20.76;63.85
12475;BME280;6302;42.624;23.334;2022-07-23T02:25:08;93614.88;;;20.72;64.24
12475;BME280;6302;42.624;23.334;2022-07-23T02:27:35;93610.69;;;20.71;64.30
12475;BME280;6302;42.624;23.334;2022-07-23T02:30:03;93603.78;;;20.70;64.55
12475;BME280;6302;42.624;23.334;2022-07-23T02:32:32;93615.03;;;20.68;64.46
12475;BME280;6302;42.624;23.334;2022-07-23T02:34:59;93609.31;;;20.66;64.63
12475;BME280;6302;42.624;23.334;2022-07-23T02:37:26;93603.50;;;20.59;65.26
12475;BME280;6302;42.624;23.334;2022-07-23T02:39:53;93618.00;;;20.61;65.02
12475;BME280;6302;42.624;23.334;2022-07-23T02:42:19;93612.63;;;20.61;64.88
12475;BME280;6302;42.624;23.334;2022-07-23T02:44:46;93622.66;;;20.61;65.41
12475;BME280;6302;42.624;23.334;2022-07-23T02:47:13;93625.03;;;20.59;64.49
12475;BME280;6302;42.624;23.334;2022-07-23T02:49:41;93625.63;;;20.63;63.80
12475;BME280;6302;42.624;23.334;2022-07-23T02:52:08;93624.13;;;20.62;65.28
12475;BME280;6302;42.624;23.334;2022-07-23T02:54:35;93630.44;;;20.59;64.89
12475;BME280;6302;42.624;23.334;2022-07-23T02:57:03;93631.16;;;20.59;65.09
12475;BME280;6302;42.624;23.334;2022-07-23T02:59:29;93630.84;;;20.57;64.70
12475;BME280;6302;42.624;23.334;2022-07-23T03:01:56;93633.25;;;20.55;64.34
12475;BME280;6302;42.624;23.334;2022-07-23T03:04:23;93635.19;;;20.55;63.43
12475;BME280;6302;42.624;23.334;2022-07-23T03:06:51;93641.34;;;20.55;63.20
12475;BME280;6302;42.624;23.334;2022-07-23T03:09:18;93642.09;;;20.56;64.20
12475;BME280;6302;42.624;23.334;2022-07-23T03:11:45;93632.78;;;20.57;65.71
12475;BME280;6302;42.624;23.334;2022-07-23T03:14:12;93635.34;;;20.51;66.39
12475;BME280;6302;42.624;23.334;2022-07-23T03:16:41;93636.84;;;20.52;67.10
12475;BME280;6302;42.624;23.334;2022-07-23T03:19:08;93639.69;;;20.49;68.57
12475;BME280;6302;42.624;23.334;2022-07-23T03:21:35;93646.25;;;20.48;69.03
12475;BME280;6302;42.624;23.334;2022-07-23T03:24:07;93640.09;;;20.47;68.91
12475;BME280;6302;42.624;23.334;2022-07-23T03:26:34;93643.84;;;20.50;69.10
12475;BME280;6302;42.624;23.334;2022-07-23T03:29:02;93642.69;;;20.51;68.76
12475;BME280;6302;42.624;23.334;2022-07-23T03:31:29;93652.22;;;20.52;68.61
12475;BME280;6302;42.624;23.334;2022-07-23T03:33:57;93629.34;;;20.47;68.82
12475;BME280;6302;42.624;23.334;2022-07-23T03:36:24;93642.09;;;20.56;68.71
12475;BME280;6302;42.624;23.334;2022-07-23T03:38:50;93626.63;;;20.38;68.47
12475;BME280;6302;42.624;23.334;2022-07-23T03:41:19;93653.44;;;20.60;67.85
12475;BME280;6302;42.624;23.334;2022-07-23T03:43:46;93651.06;;;20.62;67.92
12475;BME280;6302;42.624;23.334;2022-07-23T03:46:13;93660.06;;;20.68;66.45
12475;BME280;6302;42.624;23.334;2022-07-23T03:48:40;93657.53;;;20.73;65.44
12475;BME280;6302;42.624;23.334;2022-07-23T03:51:07;93656.47;;;20.80;65.04
12475;BME280;6302;42.624;23.334;2022-07-23T03:53:34;93665.47;;;20.86;65.08
12475;BME280;6302;42.624;23.334;2022-07-23T03:56:01;93660.22;;;20.92;66.13
12475;BME280;6302;42.624;23.334;2022-07-23T03:58:29;93663.06;;;20.97;66.78
12475;BME280;6302;42.624;23.334;2022-07-23T04:00:56;93662.78;;;21.04;67.53
12475;BME280;6302;42.624;23.334;2022-07-23T04:03:23;93665.19;;;21.11;68.11
12475;BME280;6302;42.624;23.334;2022-07-23T04:05:49;93655.03;;;21.15;68.19
12475;BME280;6302;42.624;23.334;2022-07-23T04:08:16;93652.59;;;21.26;68.13
12475;BME280;6302;42.624;23.334;2022-07-23T04:10:43;93650.34;;;21.34;68.16
12475;BME280;6302;42.624;23.334;2022-07-23T04:13:10;93640.63;;;21.36;67.78
12475;BME280;6302;42.624;23.334;2022-07-23T04:15:38;93645.56;;;21.47;68.25
12475;BME280;6302;42.624;23.334;2022-07-23T04:18:05;93651.38;;;21.46;70.62
12475;BME280;6302;42.624;23.334;2022-07-23T04:20:33;93664.13;;;21.45;72.85
12475;BME280;6302;42.624;23.334;2022-07-23T04:23:00;93652.31;;;21.43;74.24
12475;BME280;6302;42.624;23.334;2022-07-23T04:25:27;93657.69;;;21.43;74.50
12475;BME280;6302;42.624;23.334;2022-07-23T04:27:53;93661.13;;;21.43;75.77
12475;BME280;6302;42.624;23.334;2022-07-23T04:30:20;93659.66;;;21.33;76.64
12475;BME280;6302;42.624;23.334;2022-07-23T04:32:49;93666.41;;;21.37;78.38
12475;BME280;6302;42.624;23.334;2022-07-23T04:35:15;93666.66;;;21.49;77.84
12475;BME280;6302;42.624;23.334;2022-07-23T04:37:42;93664.56;;;21.53;78.28
12475;BME280;6302;42.624;23.334;2022-07-23T04:40:10;93667.84;;;21.57;77.92
12475;BME280;6302;42.624;23.334;2022-07-23T04:42:38;93664.41;;;21.56;78.27
12475;BME280;6302;42.624;23.334;2022-07-23T04:45:05;93669.19;;;21.61;78.84
12475;BME280;6302;42.624;23.334;2022-07-23T04:47:33;93669.91;;;21.71;78.70
12475;BME280;6302;42.624;23.334;2022-07-23T04:50:01;93678.28;;;21.82;78.27
12475;BME280;6302;42.624;23.334;2022-07-23T04:52:28;93669.59;;;21.96;77.61
12475;BME280;6302;42.624;23.334;2022-07-23T04:54:55;93672.56;;;22.07;78.00
12475;BME280;6302;42.624;23.334;2022-07-23T04:57:21;93670.72;;;22.13;78.18
12475;BME280;6302;42.624;23.334;2022-07-23T04:59:48;93679.09;;;22.15;77.08
12475;BME280;6302;42.624;23.334;2022-07-23T05:02:15;93684.03;;;22.26;76.97
12475;BME280;6302;42.624;23.334;2022-07-23T05:04:42;93682.38;;;22.28;78.89
12475;BME280;6302;42.624;23.334;2022-07-23T05:07:10;93689.22;;;22.38;78.27
12475;BME280;6302;42.624;23.334;2022-07-23T05:09:37;93684.66;;;22.53;75.70
12475;BME280;6302;42.624;23.334;2022-07-23T05:12:04;93688.19;;;22.59;74.72
12475;BME280;6302;42.624;23.334;2022-07-23T05:14:31;93690.06;;;22.53;75.12
12475;BME280;6302;42.624;23.334;2022-07-23T05:16:58;93683.94;;;22.77;74.25
12475;BME280;6302;42.624;23.334;2022-07-23T05:19:25;93680.38;;;22.94;73.47
12475;BME280;6302;42.624;23.334;2022-07-23T05:21:52;93683.81;;;22.95;73.38
12475;BME280;6302;42.624;23.334;2022-07-23T05:24:20;93685.25;;;23.05;72.42
12475;BME280;6302;42.624;23.334;2022-07-23T05:26:47;93694.88;;;23.06;68.51
12475;BME280;6302;42.624;23.334;2022-07-23T05:29:14;93691.72;;;23.22;68.37
12475;BME280;6302;42.624;23.334;2022-07-23T05:31:40;93699.59;;;23.35;60.72
12475;BME280;6302;42.624;23.334;2022-07-23T05:34:07;93699.66;;;23.49;62.89
12475;BME280;6302;42.624;23.334;2022-07-23T05:36:34;93699.78;;;23.69;63.38
12475;BME280;6302;42.624;23.334;2022-07-23T05:39:03;93699.03;;;23.83;62.55
12475;BME280;6302;42.624;23.334;2022-07-23T05:41:31;93696.97;;;23.93;60.17
12475;BME280;6302;42.624;23.334;2022-07-23T05:43:59;93693.72;;;23.89;60.30
12475;BME280;6302;42.624;23.334;2022-07-23T05:46:25;93692.31;;;23.93;60.44
12475;BME280;6302;42.624;23.334;2022-07-23T05:48:53;93688.03;;;24.02;59.54
12475;BME280;6302;42.624;23.334;2022-07-23T05:51:23;93687.53;;;24.32;55.38
12475;BME280;6302;42.624;23.334;2022-07-23T05:53:51;93694.16;;;24.46;56.27
12475;BME280;6302;42.624;23.334;2022-07-23T05:56:18;93698.59;;;24.64;57.57
12475;BME280;6302;42.624;23.334;2022-07-23T05:58:47;93702.78;;;24.65;56.54
12475;BME280;6302;42.624;23.334;2022-07-23T06:01:13;93704.06;;;24.69;54.92
12475;BME280;6302;42.624;23.334;2022-07-23T06:03:40;93705.22;;;24.77;54.97
12475;BME280;6302;42.624;23.334;2022-07-23T06:06:07;93700.47;;;24.92;53.10
12475;BME280;6302;42.624;23.334;2022-07-23T06:08:34;93704.03;;;24.98;52.44
12475;BME280;6302;42.624;23.334;2022-07-23T06:11:01;93695.31;;;24.94;52.89
12475;BME280;6302;42.624;23.334;2022-07-23T06:13:28;93698.31;;;24.96;51.19
12475;BME280;6302;42.624;23.334;2022-07-23T06:15:56;93692.50;;;25.03;51.76
12475;BME280;6302;42.624;23.334;2022-07-23T06:18:23;93697.22;;;25.08;50.82
12475;BME280;6302;42.624;23.334;2022-07-23T06:20:50;93685.56;;;25.23;49.81
12475;BME280;6302;42.624;23.334;2022-07-23T06:23:17;93691.13;;;25.34;51.02
12475;BME280;6302;42.624;23.334;2022-07-23T06:25:44;93693.56;;;25.52;51.73
12475;BME280;6302;42.624;23.334;2022-07-23T06:28:11;93694.00;;;25.70;53.16
12475;BME280;6302;42.624;23.334;2022-07-23T06:30:37;93695.13;;;25.58;54.00
12475;BME280;6302;42.624;23.334;2022-07-23T06:33:06;93695.59;;;25.57;55.06
12475;BME280;6302;42.624;23.334;2022-07-23T06:35:33;93697.38;;;25.60;54.94
12475;BME280;6302;42.624;23.334;2022-07-23T06:38:00;93693.28;;;25.70;54.10
12475;BME280;6302;42.624;23.334;2022-07-23T06:40:27;93693.88;;;25.85;52.05
12475;BME280;6302;42.624;23.334;2022-07-23T06:42:53;93691.03;;;25.94;52.52
12475;BME280;6302;42.624;23.334;2022-07-23T06:45:20;93692.50;;;25.95;53.75
12475;BME280;6302;42.624;23.334;2022-07-23T06:47:47;93687.75;;;25.90;54.55
12475;BME280;6302;42.624;23.334;2022-07-23T06:50:16;93693.31;;;26.01;55.15
12475;BME280;6302;42.624;23.334;2022-07-23T06:52:42;93682.56;;;26.12;55.40
12475;BME280;6302;42.624;23.334;2022-07-23T06:55:09;93687.91;;;26.32;55.53
12475;BME280;6302;42.624;23.334;2022-07-23T06:57:36;93683.25;;;26.38;54.81
12475;BME280;6302;42.624;23.334;2022-07-23T07:00:04;93680.88;;;26.52;55.00
12475;BME280;6302;42.624;23.334;2022-07-23T07:02:32;93685.13;;;26.58;55.86
12475;BME280;6302;42.624;23.334;2022-07-23T07:04:58;93684.66;;;26.65;54.40
12475;BME280;6302;42.624;23.334;2022-07-23T07:07:27;93684.16;;;26.67;54.31
12475;BME280;6302;42.624;23.334;2022-07-23T07:09:53;93686.91;;;26.67;54.14
12475;BME280;6302;42.624;23.334;2022-07-23T07:12:20;93687.88;;;26.64;53.77
12475;BME280;6302;42.624;23.334;2022-07-23T07:14:47;93682.69;;;26.66;54.03
12475;BME280;6302;42.624;23.334;2022-07-23T07:17:14;93680.59;;;26.81;54.41
12475;BME280;6302;42.624;23.334;2022-07-23T07:19:41;93675.94;;;26.92;50.79
12475;BME280;6302;42.624;23.334;2022-07-23T07:22:08;93677.97;;;26.97;49.78
12475;BME280;6302;42.624;23.334;2022-07-23T07:24:36;93675.25;;;27.03;49.81
12475;BME280;6302;42.624;23.334;2022-07-23T07:27:03;93675.06;;;27.18;50.97
12475;BME280;6302;42.624;23.334;2022-07-23T07:29:30;93667.44;;;27.27;49.70
12475;BME280;6302;42.624;23.334;2022-07-23T07:31:58;93673.47;;;27.53;49.68
12475;BME280;6302;42.624;23.334;2022-07-23T07:34:25;93667.81;;;27.62;49.10
12475;BME280;6302;42.624;23.334;2022-07-23T07:36:52;93667.09;;;27.67;48.71
12475;BME280;6302;42.624;23.334;2022-07-23T07:39:19;93663.63;;;27.72;48.15
12475;BME280;6302;42.624;23.334;2022-07-23T07:41:47;93661.63;;;27.62;49.06
12475;BME280;6302;42.624;23.334;2022-07-23T07:44:14;93668.59;;;27.80;49.59
12475;BME280;6302;42.624;23.334;2022-07-23T07:46:41;93663.91;;;28.02;48.92
12475;BME280;6302;42.624;23.334;2022-07-23T07:49:08;93661.44;;;27.99;47.39
12475;BME280;6302;42.624;23.334;2022-07-23T07:51:35;93666.38;;;27.95;46.27
12475;BME280;6302;42.624;23.334;2022-07-23T07:54:02;93670.38;;;28.10;47.81
12475;BME280;6302;42.624;23.334;2022-07-23T07:56:29;93675.34;;;28.06;46.27
12475;BME280;6302;42.624;23.334;2022-07-23T07:58:58;93665.19;;;28.07;46.64
12475;BME280;6302;42.624;23.334;2022-07-23T08:01:26;93658.97;;;28.23;47.08
12475;BME280;6302;42.624;23.334;2022-07-23T08:03:52;93659.22;;;28.36;45.71
12475;BME280;6302;42.624;23.334;2022-07-23T08:06:19;93660.22;;;28.38;45.99
12475;BME280;6302;42.624;23.334;2022-07-23T08:08:46;93665.63;;;28.55;46.52
12475;BME280;6302;42.624;23.334;2022-07-23T08:11:13;93663.66;;;28.72;45.77
12475;BME280;6302;42.624;23.334;2022-07-23T08:13:40;93655.94;;;28.82;44.71
12475;BME280;6302;42.624;23.334;2022-07-23T08:16:08;93659.63;;;28.95;43.84
12475;BME280;6302;42.624;23.334;2022-07-23T08:18:35;93654.41;;;28.92;42.09
12475;BME280;6302;42.624;23.334;2022-07-23T08:21:02;93659.34;;;28.99;42.41
12475;BME280;6302;42.624;23.334;2022-07-23T08:23:31;93652.13;;;29.07;42.71
12475;BME280;6302;42.624;23.334;2022-07-23T08:25:58;93658.06;;;29.17;43.15
12475;BME280;6302;42.624;23.334;2022-07-23T08:28:27;93658.28;;;29.30;42.52
12475;BME280;6302;42.624;23.334;2022-07-23T08:30:53;93663.19;;;29.42;40.94
12475;BME280;6302;42.624;23.334;2022-07-23T08:33:22;93654.00;;;29.40;41.11
12475;BME280;6302;42.624;23.334;2022-07-23T08:35:49;93651.94;;;29.57;41.89
12475;BME280;6302;42.624;23.334;2022-07-23T08:38:20;93651.81;;;29.79;42.61
12475;BME280;6302;42.624;23.334;2022-07-23T08:40:48;93661.97;;;29.84;40.49
12475;BME280;6302;42.624;23.334;2022-07-23T08:43:17;93648.56;;;29.81;40.87
12475;BME280;6302;42.624;23.334;2022-07-23T08:45:46;93650.81;;;29.82;40.22
12475;BME280;6302;42.624;23.334;2022-07-23T08:48:14;93653.19;;;29.97;39.78
12475;BME280;6302;42.624;23.334;2022-07-23T08:50:44;93658.78;;;30.10;40.34
12475;BME280;6302;42.624;23.334;2022-07-23T08:53:12;93654.69;;;30.27;39.14
12475;BME280;6302;42.624;23.334;2022-07-23T08:55:40;93665.63;;;30.27;38.01
12475;BME280;6302;42.624;23.334;2022-07-23T08:58:09;93650.91;;;30.36;37.99
12475;BME280;6302;42.624;23.334;2022-07-23T09:00:36;93649.19;;;30.63;37.27
12475;BME280;6302;42.624;23.334;2022-07-23T09:03:03;93653.97;;;30.81;38.54
12475;BME280;6302;42.624;23.334;2022-07-23T09:05:30;93651.06;;;30.73;38.68
12475;BME280;6302;42.624;23.334;2022-07-23T09:08:11;93644.22;;;30.85;36.03
12475;BME280;6302;42.624;23.334;2022-07-23T09:10:46;93649.47;;;30.83;37.38
12475;BME280;6302;42.624;23.334;2022-07-23T09:13:24;93638.75;;;30.85;36.93
12475;BME280;6302;42.624;23.334;2022-07-23T09:15:53;93644.97;;;31.10;36.67
12475;BME280;6302;42.624;23.334;2022-07-23T09:18:28;93643.56;;;31.22;34.95
12475;BME280;6302;42.624;23.334;2022-07-23T09:21:06;93640.25;;;31.29;35.77
12475;BME280;6302;42.624;23.334;2022-07-23T09:23:42;93643.34;;;31.39;36.37
12475;BME280;6302;42.624;23.334;2022-07-23T09:26:28;93643.09;;;31.61;34.82
12475;BME280;6302;42.624;23.334;2022-07-23T09:28:59;93645.16;;;31.74;34.08
12475;BME280;6302;42.624;23.334;2022-07-23T09:31:32;93639.47;;;31.72;34.04
12475;BME280;6302;42.624;23.334;2022-07-23T09:34:07;93639.81;;;31.81;33.76
12475;BME280;6302;42.624;23.334;2022-07-23T09:36:34;93636.94;;;31.74;32.57
12475;BME280;6302;42.624;23.334;2022-07-23T09:39:03;93627.69;;;31.77;31.99
12475;BME280;6302;42.624;23.334;2022-07-23T09:41:34;93630.13;;;31.99;32.22
12475;BME280;6302;42.624;23.334;2022-07-23T09:44:09;93631.41;;;32.11;32.73
12475;BME280;6302;42.624;23.334;2022-07-23T09:46:37;93629.13;;;32.28;32.79
12475;BME280;6302;42.624;23.334;2022-07-23T09:49:14;93626.47;;;32.54;32.59
12475;BME280;6302;42.624;23.334;2022-07-23T09:51:46;93620.81;;;32.78;28.77
12475;BME280;6302;42.624;23.334;2022-07-23T09:54:26;93626.91;;;32.58;30.25
12475;BME280;6302;42.624;23.334;2022-07-23T09:56:55;93620.09;;;32.46;29.63
12475;BME280;6302;42.624;23.334;2022-07-23T09:59:24;93621.94;;;32.57;29.97
12475;BME280;6302;42.624;23.334;2022-07-23T10:01:53;93620.91;;;32.73;30.26
12475;BME280;6302;42.624;23.334;2022-07-23T10:04:22;93614.13;;;33.00;29.15
12475;BME280;6302;42.624;23.334;2022-07-23T10:06:51;93616.38;;;33.15;29.34
12475;BME280;6302;42.624;23.334;2022-07-23T10:09:24;93611.38;;;33.39;29.44
12475;BME280;6302;42.624;23.334;2022-07-23T10:11:52;93608.28;;;33.56;29.38
12475;BME280;6302;42.624;23.334;2022-07-23T10:14:22;93611.06;;;33.77;27.86
12475;BME280;6302;42.624;23.334;2022-07-23T10:16:49;93612.69;;;33.93;28.20
12475;BME280;6302;42.624;23.334;2022-07-23T10:19:16;93606.88;;;33.96;25.87
12475;BME280;6302;42.624;23.334;2022-07-23T10:21:46;93604.38;;;33.85;26.49
12475;BME280;6302;42.624;23.334;2022-07-23T10:24:20;93599.66;;;33.73;27.24
12475;BME280;6302;42.624;23.334;2022-07-23T10:26:58;93602.44;;;33.93;26.67
12475;BME280;6302;42.624;23.334;2022-07-23T10:29:38;93599.00;;;34.00;23.38
12475;BME280;6302;42.624;23.334;2022-07-23T10:32:13;93601.56;;;33.98;25.01
12475;BME280;6302;42.624;23.334;2022-07-23T10:34:47;93593.84;;;33.97;24.56
12475;BME280;6302;42.624;23.334;2022-07-23T10:37:21;93591.59;;;34.09;24.83
12475;BME280;6302;42.624;23.334;2022-07-23T10:40:09;93591.44;;;34.35;25.15
12475;BME280;6302;42.624;23.334;2022-07-23T10:42:37;93592.19;;;34.56;23.66
12475;BME280;6302;42.624;23.334;2022-07-23T10:45:23;93576.22;;;34.34;23.20
12475;BME280;6302;42.624;23.334;2022-07-23T10:47:50;93591.84;;;34.39;23.94
12475;BME280;6302;42.624;23.334;2022-07-23T10:50:22;93581.22;;;34.43;24.61
12475;BME280;6302;42.624;23.334;2022-07-23T10:53:12;93576.66;;;34.66;23.68
12475;BME280;6302;42.624;23.334;2022-07-23T10:55:49;93574.94;;;34.91;23.18
12475;BME280;6302;42.624;23.334;2022-07-23T10:58:20;93571.53;;;34.98;19.75
12475;BME280;6302;42.624;23.334;2022-07-23T11:00:48;93565.84;;;35.04;18.45
12475;BME280;6302;42.624;23.334;2022-07-23T11:03:37;93560.69;;;35.00;19.18
12475;BME280;6302;42.624;23.334;2022-07-23T11:06:05;93556.53;;;35.14;19.44
12475;BME280;6302;42.624;23.334;2022-07-23T11:08:32;93556.03;;;35.23;19.92
12475;BME280;6302;42.624;23.334;2022-07-23T11:11:10;93549.59;;;35.13;20.27
12475;BME280;6302;42.624;23.334;2022-07-23T11:13:44;93554.31;;;35.05;18.95
12475;BME280;6302;42.624;23.334;2022-07-23T11:16:18;93544.88;;;34.93;20.37
12475;BME280;6302;42.624;23.334;2022-07-23T11:19:09;93549.91;;;35.10;20.18
12475;BME280;6302;42.624;23.334;2022-07-23T11:21:50;93552.72;;;35.17;20.73
12475;BME280;6302;42.624;23.334;2022-07-23T11:24:19;93539.25;;;35.06;20.96
12475;BME280;6302;42.624;23.334;2022-07-23T11:26:57;93536.56;;;35.29;20.31
12475;BME280;6302;42.624;23.334;2022-07-23T11:29:50;93531.16;;;35.52;21.13
12475;BME280;6302;42.624;23.334;2022-07-23T11:32:27;93533.69;;;35.42;20.53
12475;BME280;6302;42.624;23.334;2022-07-23T11:34:56;93525.94;;;35.41;19.56
12475;BME280;6302;42.624;23.334;2022-07-23T11:37:29;93531.84;;;35.37;19.91
12475;BME280;6302;42.624;23.334;2022-07-23T11:39:57;93529.28;;;35.47;20.13
12475;BME280;6302;42.624;23.334;2022-07-23T11:42:24;93530.09;;;35.70;20.35
12475;BME280;6302;42.624;23.334;2022-07-23T11:44:52;93516.88;;;35.83;19.76
12475;BME280;6302;42.624;23.334;2022-07-23T11:47:22;93514.66;;;35.74;19.95
12475;BME280;6302;42.624;23.334;2022-07-23T11:49:54;93516.84;;;35.68;19.41
12475;BME280;6302;42.624;23.334;2022-07-23T11:52:22;93511.75;;;35.87;19.46
12475;BME280;6302;42.624;23.334;2022-07-23T11:54:52;93504.78;;;36.09;19.24
12475;BME280;6302;42.624;23.334;2022-07-23T11:57:20;93509.72;;;36.33;20.42
12475;BME280;6302;42.624;23.334;2022-07-23T11:59:51;93507.13;;;36.35;19.55
12475;BME280;6302;42.624;23.334;2022-07-23T12:02:21;93505.47;;;36.32;18.17
12475;BME280;6302;42.624;23.334;2022-07-23T12:04:49;93508.63;;;36.36;17.81
12475;BME280;6302;42.624;23.334;2022-07-23T12:07:27;93504.56;;;36.15;17.34
12475;BME280;6302;42.624;23.334;2022-07-23T12:09:55;93501.06;;;35.91;17.03
12475;BME280;6302;42.624;23.334;2022-07-23T12:12:23;93508.75;;;35.78;17.58
12475;BME280;6302;42.624;23.334;2022-07-23T12:14:52;93500.88;;;35.89;17.27
12475;BME280;6302;42.624;23.334;2022-07-23T12:17:20;93493.19;;;36.03;18.01
12475;BME280;6302;42.624;23.334;2022-07-23T12:19:48;93498.16;;;36.05;18.37
12475;BME280;6302;42.624;23.334;2022-07-23T12:22:15;93499.41;;;35.96;17.62
12475;BME280;6302;42.624;23.334;2022-07-23T12:24:58;93497.94;;;35.87;17.69
12475;BME280;6302;42.624;23.334;2022-07-23T12:27:27;93493.75;;;36.09;18.11
12475;BME280;6302;42.624;23.334;2022-07-23T12:29:54;93493.91;;;36.34;17.95
12475;BME280;6302;42.624;23.334;2022-07-23T12:32:24;93482.28;;;36.35;17.87
12475;BME280;6302;42.624;23.334;2022-07-23T12:35:02;93479.72;;;36.30;17.14
12475;BME280;6302;42.624;23.334;2022-07-23T12:37:31;93481.19;;;36.53;17.84
12475;BME280;6302;42.624;23.334;2022-07-23T12:39:59;93476.34;;;36.69;18.14
12475;BME280;6302;42.624;23.334;2022-07-23T12:42:45;93467.81;;;36.90;17.87
12475;BME280;6302;42.624;23.334;2022-07-23T12:45:15;93473.31;;;36.90;17.21
12475;BME280;6302;42.624;23.334;2022-07-23T12:48:02;93473.06;;;36.63;17.96
12475;BME280;6302;42.624;23.334;2022-07-23T12:50:32;93464.44;;;36.51;17.28
12475;BME280;6302;42.624;23.334;2022-07-23T12:53:12;93469.22;;;36.51;16.37
12475;BME280;6302;42.624;23.334;2022-07-23T12:55:39;93464.25;;;36.49;16.04
12475;BME280;6302;42.624;23.334;2022-07-23T12:58:12;93464.22;;;36.42;15.32
12475;BME280;6302;42.624;23.334;2022-07-23T13:00:53;93457.66;;;36.22;15.39
12475;BME280;6302;42.624;23.334;2022-07-23T13:03:23;93460.56;;;36.47;15.82
12475;BME280;6302;42.624;23.334;2022-07-23T13:05:50;93460.38;;;36.52;16.62
12475;BME280;6302;42.624;23.334;2022-07-23T13:08:18;93458.00;;;36.34;16.11